Time;durP1;ratioP1;P1;durP2;ratioP2;P2;SDS_P1;SDS_P2;PMS_P1;PMS_P2;Temp;Humidity;BMP_temperature;BMP_pressure;BME280_temperature;BME280_humidity;BME280_pressure;Samples;Min_cycle;Max_cycle;Signal;HPM_P1;HPM_P2
2021/08/05 00:00:15;;;;;;;14.82;13.23;;;;;;;16.51;78.71;101166.25;5116995;28;20031;-35
2021/08/05 00:02:40;;;;;;;;;;;;;;;16.63;76.86;101164.94;5117190;28;20407;-35
2021/08/05 00:05:06;;;;;;;14.40;12.97;;;;;;;16.58;78.43;101175.00;5117295;28;19914;-35
2021/08/05 00:07:31;;;;;;;15.10;13.60;;;;;;;16.50;78.45;101154.50;5116876;28;20360;-35
2021/08/05 00:09:57;;;;;;;15.53;13.53;;;;;;;16.36;78.79;101159.59;5116765;28;20019;-35
2021/08/05 00:12:22;;;;;;;15.50;13.80;;;;;;;16.41;79.22;101161.53;5116952;28;20328;-35
2021/08/05 00:14:47;;;;;;;15.02;13.45;;;;;;;16.34;79.37;101150.00;5116871;28;20023;-35
2021/08/05 00:17:13;;;;;;;13.80;12.40;;;;;;;16.36;79.57;101164.22;5116773;28;20108;-35
2021/08/05 00:19:39;;;;;;;14.32;12.90;;;;;;;16.37;79.52;101154.94;5116572;28;20431;-35
2021/08/05 00:22:05;;;;;;;14.70;13.10;;;;;;;16.46;79.24;101170.56;5116817;28;20431;-35
2021/08/05 00:24:30;;;;;;;14.98;13.57;;;;;;;16.46;79.32;101164.28;5116526;28;20024;-35
2021/08/05 00:26:55;;;;;;;16.10;14.48;;;;;;;16.32;80.16;101161.19;5117004;28;20023;-35
2021/08/05 00:29:21;;;;;;;15.00;13.60;;;;;;;16.44;79.15;101161.00;5116062;28;20492;-35
2021/08/05 00:31:46;;;;;;;16.13;14.57;;;;;;;16.44;79.20;101161.00;5116597;28;20028;-35
2021/08/05 00:34:11;;;;;;;15.77;14.13;;;;;;;16.45;79.53;101154.47;5116548;28;20448;-35
2021/08/05 00:36:37;;;;;;;;;;;;;;;16.53;77.87;101150.41;5117137;28;20024;-35
2021/08/05 00:39:03;;;;;;;15.65;14.02;;;;;;;16.34;79.62;101155.47;5116359;28;20255;-35
2021/08/05 00:41:28;;;;;;;;;;;;;;;16.50;77.87;101154.50;5117092;28;20072;-35
2021/08/05 00:43:53;;;;;;;15.80;14.13;;;;;;;16.31;79.84;101153.28;5115750;28;19968;-35
2021/08/05 00:46:19;;;;;;;17.20;15.55;;;;;;;16.18;79.86;101136.25;5116281;28;20020;-35
2021/08/05 00:48:44;;;;;;;;;;;;;;;16.41;77.85;101153.34;5117203;28;20333;-35
2021/08/05 00:51:09;;;;;;;17.20;15.60;;;;;;;16.32;79.63;101149.44;5116199;28;19951;-35
2021/08/05 00:53:35;;;;;;;17.15;15.55;;;;;;;16.28;80.04;101143.69;5115543;28;20027;-35
2021/08/05 00:56:00;;;;;;;18.63;16.77;;;;;;;16.18;79.77;101125.34;5115939;28;20028;-35
2021/08/05 00:58:25;;;;;;;17.48;15.77;;;;;;;16.33;79.53;101141.00;5115755;28;20443;-35
2021/08/05 01:00:56;;;;;;;18.20;16.40;;;;;;;16.22;79.90;101136.56;5115714;28;20024;-35
2021/08/05 01:03:34;;;;;;;17.67;15.98;;;;;;;16.23;79.94;101136.28;5115504;28;20024;-39
2021/08/05 01:06:36;;;;;;;16.52;14.90;;;;;;;16.26;80.00;101140.41;5115434;28;20023;-36
2021/08/05 01:09:16;;;;;;;18.20;16.42;;;;;;;16.11;80.42;101119.28;5115562;28;20011;-36
2021/08/05 01:11:50;;;;;;;16.58;15.02;;;;;;;16.14;79.90;101120.66;5115737;28;20035;-35
2021/08/05 01:14:17;;;;;;;17.42;15.82;;;;;;;16.11;80.83;101126.66;5116054;28;20058;-35
2021/08/05 01:16:46;;;;;;;17.67;15.80;;;;;;;16.04;81.23;101123.31;5115355;28;20448;-35
2021/08/05 01:19:22;;;;;;;17.17;15.50;;;;;;;16.16;81.35;101135.69;5115405;28;20047;-36
2021/08/05 01:22:05;;;;;;;17.52;15.93;;;;;;;16.05;81.28;101119.50;5115875;28;20046;-36
2021/08/05 01:24:35;;;;;;;18.63;16.73;;;;;;;16.00;81.40;101111.28;5114946;28;20015;-36
2021/08/05 01:27:01;;;;;;;17.95;15.95;;;;;;;16.08;81.71;101122.53;5115975;28;20035;-36
2021/08/05 01:29:29;;;;;;;17.95;16.17;;;;;;;16.06;81.73;101100.16;5114878;28;20034;-36
2021/08/05 01:31:55;;;;;;;18.55;16.67;;;;;;;16.08;80.66;101111.63;5114903;28;20304;-36
2021/08/05 01:34:21;;;;;;;;;;;;;;;16.28;79.59;101118.31;5115541;28;20034;-37
2021/08/05 01:36:48;;;;;;;17.83;16.23;;;;;;;16.08;82.00;101119.81;5114963;28;20010;-34
2021/08/05 01:39:14;;;;;;;17.35;15.75;;;;;;;16.02;82.13;101117.31;5114955;28;20035;-36
2021/08/05 01:41:41;;;;;;;18.13;16.35;;;;;;;16.02;82.10;101118.13;5115183;28;20059;-36
2021/08/05 01:44:09;;;;;;;18.27;16.48;;;;;;;16.00;82.04;101123.00;5114204;28;20134;-35
2021/08/05 01:46:35;;;;;;;18.33;16.55;;;;;;;16.07;82.21;101118.16;5115069;28;20024;-35
2021/08/05 01:49:01;;;;;;;;;;;;;;;16.24;80.16;101112.53;5115273;28;20320;-36
2021/08/05 01:51:28;;;;;;;20.38;18.42;;;;;;;16.03;81.34;101108.03;5114443;28;19904;-35
2021/08/05 01:53:53;;;;;;;20.35;18.38;;;;;;;15.93;81.84;101106.03;5114931;28;20431;-36
2021/08/05 01:56:21;;;;;;;18.42;16.63;;;;;;;15.95;82.59;101103.88;5114871;28;20019;-34
2021/08/05 01:58:46;;;;;;;20.45;17.92;;;;;;;15.89;82.23;101103.00;5114243;28;20019;-36
2021/08/05 02:01:12;;;;;;;;;;;;;;;16.06;80.59;101100.16;5115637;28;20034;-36
2021/08/05 02:03:38;;;;;;;18.63;16.83;;;;;;;15.91;82.28;101103.59;5114294;28;19904;-36
2021/08/05 02:06:10;;;;;;;;;;;;;;;16.02;80.63;101098.22;5114735;28;20024;-36
2021/08/05 02:08:42;;;;;;;17.98;15.93;;;;;;;15.88;83.06;101089.66;5114440;28;20002;-36
2021/08/05 02:11:07;;;;;;;19.77;17.80;;;;;;;15.92;82.79;101098.97;5114188;28;20020;-36
2021/08/05 02:13:40;;;;;;;20.80;18.60;;;;;;;15.91;82.12;101098.13;5113151;28;20023;-36
2021/08/05 02:16:08;;;;;;;19.30;17.33;;;;;;;15.93;82.87;101095.97;5115033;28;20028;-36
2021/08/05 02:18:34;;;;;;;18.95;16.95;;;;;;;15.96;82.53;101095.44;5114296;28;20015;-36
2021/08/05 02:21:02;;;;;;;19.80;17.85;;;;;;;15.89;82.86;101089.38;5113745;28;20019;-36
2021/08/05 02:23:28;;;;;;;20.77;18.75;;;;;;;15.89;83.21;101092.09;5114497;28;20084;-36
2021/08/05 02:25:54;;;;;;;;;;;;;;;16.04;81.19;101090.56;5114551;28;20053;-36
2021/08/05 02:28:22;;;;;;;19.43;17.63;;;;;;;15.89;83.47;101099.47;5114007;28;19991;-36
2021/08/05 02:30:50;;;;;;;19.65;17.85;;;;;;;15.94;82.96;101091.31;5112926;28;20031;-36
2021/08/05 02:33:17;;;;;;;19.98;17.92;;;;;;;15.88;83.22;101076.81;5113705;28;20024;-36
2021/08/05 02:35:44;;;;;;;19.02;17.13;;;;;;;15.93;82.23;101084.22;5114116;28;20455;-36
2021/08/05 02:38:11;;;;;;;20.15;18.23;;;;;;;15.83;83.93;101087.69;5113929;28;20103;-36
2021/08/05 02:40:37;;;;;;;20.70;18.80;;;;;;;15.77;83.63;101085.19;5113662;28;20027;-36
2021/08/05 02:43:04;;;;;;;;;;;;;;;15.95;81.51;101087.50;5113806;28;20452;-36
2021/08/05 02:45:30;;;;;;;18.67;16.98;;;;;;;15.84;83.05;101083.06;5114404;28;19903;-36
2021/08/05 02:47:56;;;;;;;20.73;18.65;;;;;;;15.82;83.16;101085.25;5113799;28;20019;-36
2021/08/05 02:50:22;;;;;;;20.80;18.80;;;;;;;15.80;83.39;101085.47;5114106;28;20031;-36
2021/08/05 02:52:47;;;;;;;;;;;;;;;15.95;81.35;101087.50;5114147;28;20020;-36
2021/08/05 02:55:12;;;;;;;19.80;17.90;;;;;;;15.75;83.16;101082.72;5113046;28;19986;-36
2021/08/05 02:57:38;;;;;;;19.80;17.95;;;;;;;15.76;84.24;101080.81;5113335;28;20020;-36
2021/08/05 03:00:05;;;;;;;;;;;;;;;15.92;81.60;101077.97;5114668;28;20050;-36
2021/08/05 03:02:30;;;;;;;18.88;17.10;;;;;;;15.80;83.31;101076.47;5113918;28;19939;-36
2021/08/05 03:04:55;;;;;;;19.63;17.73;;;;;;;15.75;83.17;101068.25;5113654;28;20475;-34
2021/08/05 03:07:21;;;;;;;20.00;18.03;;;;;;;15.78;83.28;101071.28;5113998;28;20103;-34
2021/08/05 03:09:46;;;;;;;19.83;18.00;;;;;;;15.79;83.25;101067.47;5113999;28;20301;-34
2021/08/05 03:12:11;;;;;;;20.17;18.13;;;;;;;15.75;83.35;101068.25;5113579;28;20016;-34
2021/08/05 03:14:37;;;;;;;19.83;17.83;;;;;;;15.74;84.10;101064.72;5114170;28;20257;-35
2021/08/05 03:17:02;;;;;;;19.10;17.30;;;;;;;15.64;84.35;101054.53;5113521;28;20421;-35
2021/08/05 03:19:27;;;;;;;;;;;;;;;15.88;81.94;101059.66;5113646;28;20023;-35
2021/08/05 03:21:53;;;;;;;19.90;17.38;;;;;;;15.70;83.30;101063.56;5113758;28;19918;-35
2021/08/05 03:24:18;;;;;;;20.88;18.92;;;;;;;15.70;83.67;101067.13;5113821;28;20028;-35
2021/08/05 03:26:43;;;;;;;;;;;;;;;15.83;82.12;101062.34;5114018;28;20024;-34
2021/08/05 03:29:09;;;;;;;20.00;18.20;;;;;;;15.64;83.75;101065.44;5113089;28;20292;-34
2021/08/05 03:31:34;;;;;;;19.67;17.60;;;;;;;15.69;83.41;101051.84;5113810;28;20045;-34
2021/08/05 03:33:59;;;;;;;20.67;18.63;;;;;;;15.63;83.59;101055.63;5112982;28;20054;-34
2021/08/05 03:36:25;;;;;;;21.38;19.27;;;;;;;15.57;83.80;101053.09;5113470;28;20102;-35
2021/08/05 03:38:50;;;;;;;;;;;;;;;15.73;82.28;101056.81;5113951;28;20068;-35
2021/08/05 03:41:15;;;;;;;19.50;17.70;;;;;;;15.57;84.13;101056.63;5113774;28;20004;-35
2021/08/05 03:43:41;;;;;;;21.23;19.13;;;;;;;15.54;83.83;101061.78;5111696;28;20035;-35
2021/08/05 03:46:06;;;;;;;20.35;18.40;;;;;;;15.61;83.72;101054.19;5113199;28;20042;-34
2021/08/05 03:48:32;;;;;;;20.58;18.65;;;;;;;15.59;83.96;101062.66;5113418;28;20102;-34
2021/08/05 03:50:57;;;;;;;19.48;17.77;;;;;;;15.48;83.92;101041.03;5113145;28;20103;-34
2021/08/05 03:53:22;;;;;;;21.00;18.83;;;;;;;15.58;84.75;101049.28;5112931;28;20016;-34
2021/08/05 03:55:47;;;;;;;;;;;;;;;15.71;82.40;101062.50;5115851;28;20140;-35
2021/08/05 03:58:13;;;;;;;19.42;17.55;;;;;;;15.56;84.40;101063.16;5117230;28;19908;-35
2021/08/05 04:00:38;;;;;;;21.00;18.88;;;;;;;15.55;84.34;101056.06;5117522;28;20019;-35
2021/08/05 04:03:04;;;;;;;20.10;18.30;;;;;;;15.52;84.95;101050.28;5117562;28;20069;-35
2021/08/05 04:05:29;;;;;;;21.67;19.67;;;;;;;15.53;84.75;101054.69;5117317;28;20316;-35
2021/08/05 04:07:55;;;;;;;20.40;18.52;;;;;;;15.53;84.73;101060.16;5116772;28;20401;-35
2021/08/05 04:10:21;;;;;;;21.80;19.63;;;;;;;15.52;84.72;101055.75;5116840;27;20043;-35
2021/08/05 04:12:46;;;;;;;21.25;19.08;;;;;;;15.50;85.19;101057.91;5115031;28;20043;-36
2021/08/05 04:15:12;;;;;;;21.57;19.47;;;;;;;15.43;85.26;101037.16;5115485;28;20062;-35
2021/08/05 04:17:38;;;;;;;20.35;18.35;;;;;;;15.57;84.76;101048.47;5116524;28;20164;-35
2021/08/05 04:20:06;;;;;;;21.50;19.40;;;;;;;15.50;84.43;101038.84;5116558;28;20019;-35
2021/08/05 04:22:31;;;;;;;21.13;19.00;;;;;;;15.55;84.97;101045.16;5115978;28;20471;-35
2021/08/05 04:24:56;;;;;;;20.87;18.67;;;;;;;15.54;85.04;101042.69;5117287;28;20032;-36
2021/08/05 04:27:22;;;;;;;;;;;;;;;15.67;83.59;101039.59;5117314;28;20027;-35
2021/08/05 04:29:48;;;;;;;20.25;18.25;;;;;;;15.52;85.44;101045.69;5116672;28;19931;-36
2021/08/05 04:32:13;;;;;;;;;;;;;;;15.65;83.20;101041.72;5116469;28;20085;-36
2021/08/05 04:34:38;;;;;;;21.90;19.83;;;;;;;15.42;85.44;101034.66;5117056;28;19912;-36
2021/08/05 04:37:04;;;;;;;21.33;19.35;;;;;;;15.49;85.89;101039.94;5116536;28;20269;-35
2021/08/05 04:39:29;;;;;;;20.98;19.02;;;;;;;15.43;85.90;101039.88;5116225;28;20024;-35
2021/08/05 04:41:55;;;;;;;21.85;19.80;;;;;;;15.39;86.53;101037.94;5116925;28;20019;-36
2021/08/05 04:44:20;;;;;;;22.77;20.70;;;;;;;15.29;86.87;101026.94;5116119;28;20102;-35
2021/08/05 04:46:45;;;;;;;23.73;21.20;;;;;;;15.37;86.54;101040.06;5116702;28;20120;-36
2021/08/05 04:49:11;;;;;;;22.40;20.10;;;;;;;15.39;86.44;101037.94;5116201;28;20028;-36
2021/08/05 04:51:36;;;;;;;21.98;19.75;;;;;;;15.43;86.39;101041.78;5116410;28;20032;-37
2021/08/05 04:54:03;;;;;;;21.95;19.75;;;;;;;15.37;87.07;101026.44;5115823;28;20016;-35
2021/08/05 04:56:32;;;;;;;23.80;21.52;;;;;;;15.45;86.93;101039.63;5116025;28;20028;-35
2021/08/05 04:58:57;;;;;;;24.42;22.13;;;;;;;15.43;86.74;101034.44;5115669;28;20136;-35
2021/08/05 05:01:23;;;;;;;24.77;22.38;;;;;;;15.43;86.63;101039.88;5115764;28;20058;-36
2021/08/05 05:03:49;;;;;;;;;;;;;;;15.58;84.77;101039.19;5114997;28;20038;-36
2021/08/05 05:06:15;;;;;;;23.00;20.60;;;;;;;15.49;86.50;101038.03;5116268;28;19904;-36
2021/08/05 05:08:40;;;;;;;24.30;21.90;;;;;;;15.46;86.08;101022.19;5115559;28;20390;-36
2021/08/05 05:11:05;;;;;;;23.85;21.35;;;;;;;15.47;86.44;101015.66;5115609;28;20463;-36
2021/08/05 05:13:31;;;;;;;24.87;22.43;;;;;;;15.53;86.49;101020.06;5115520;28;20019;-36
2021/08/05 05:15:56;;;;;;;24.42;22.00;;;;;;;15.57;86.42;101021.22;5115773;28;20288;-36
2021/08/05 05:18:23;;;;;;;23.30;20.90;;;;;;;15.63;86.00;101035.69;5115340;28;20027;-36
2021/08/05 05:20:50;;;;;;;25.02;22.35;;;;;;;15.43;85.91;101006.38;5115392;28;20027;-36
2021/08/05 05:23:15;;;;;;;23.52;21.27;;;;;;;15.66;86.78;101040.66;5115382;28;20420;-36
2021/08/05 05:25:42;;;;;;;23.83;21.52;;;;;;;15.68;84.83;101042.03;5113885;28;20120;-36
2021/08/05 05:28:08;;;;;;;25.20;22.80;;;;;;;15.63;86.90;101032.97;5115236;28;20059;-36
2021/08/05 05:30:34;;;;;;;;;;;;;;;15.80;84.93;101030.94;5115936;28;20016;-36
2021/08/05 05:33:00;;;;;;;24.17;21.83;;;;;;;15.77;85.79;101031.47;5115148;28;19998;-36
2021/08/05 05:35:26;;;;;;;23.60;21.38;;;;;;;15.78;86.29;101030.41;5115151;28;20066;-36
2021/08/05 05:37:53;;;;;;;24.17;21.90;;;;;;;15.79;86.30;101033.94;5114961;28;20046;-36
2021/08/05 05:40:19;;;;;;;23.17;21.02;;;;;;;15.77;86.48;101036.94;5114919;28;20439;-36
2021/08/05 05:42:45;;;;;;;22.80;20.48;;;;;;;15.79;85.72;101033.94;5115192;28;20129;-36
2021/08/05 05:45:12;;;;;;;22.63;20.48;;;;;;;15.58;85.62;100995.59;5115449;28;20375;-36
2021/08/05 05:47:38;;;;;;;22.48;20.42;;;;;;;15.83;85.60;101035.06;5115080;28;20034;-36
2021/08/05 05:50:05;;;;;;;22.13;19.73;;;;;;;15.80;85.80;101025.50;5115073;28;20019;-36
2021/08/05 05:52:31;;;;;;;23.45;21.10;;;;;;;15.78;86.41;101029.56;5114600;28;20027;-36
2021/08/05 05:54:56;;;;;;;23.98;21.50;;;;;;;15.81;85.88;101031.75;5114700;28;20515;-36
2021/08/05 05:57:22;;;;;;;21.13;18.92;;;;;;;15.88;85.92;101032.38;5115112;28;20079;-36
2021/08/05 05:59:47;;;;;;;22.40;20.30;;;;;;;15.80;85.50;101013.75;5114596;28;20019;-36
2021/08/05 06:02:12;;;;;;;21.70;19.40;;;;;;;15.92;84.38;101036.22;5114323;28;20261;-36
2021/08/05 06:04:38;;;;;;;22.70;20.42;;;;;;;15.89;86.30;101028.56;5114789;27;20027;-36
2021/08/05 06:07:03;;;;;;;;;;;;;;;16.03;84.66;101027.03;5114925;28;20381;-36
2021/08/05 06:09:28;;;;;;;22.48;20.27;;;;;;;15.92;85.44;101028.06;5114949;28;19903;-36
2021/08/05 06:11:54;;;;;;;24.50;22.27;;;;;;;15.92;85.76;101028.06;5114265;28;20077;-36
2021/08/05 06:14:19;;;;;;;24.57;22.03;;;;;;;16.02;86.26;101028.13;5114668;28;20106;-36
2021/08/05 06:16:44;;;;;;;26.83;24.20;;;;;;;15.96;86.57;101015.53;5114529;27;20356;-36
2021/08/05 06:19:11;;;;;;;22.73;20.67;;;;;;;16.18;85.78;101031.75;5113426;28;20734;-36
2021/08/05 06:21:37;;;;;;;28.65;25.65;;;;;;;16.21;85.64;101021.16;5114252;28;20058;-36
2021/08/05 06:24:02;;;;;;;26.50;23.98;;;;;;;16.35;84.55;101026.94;5114796;28;20023;-36
2021/08/05 06:26:28;;;;;;;27.13;24.60;;;;;;;16.27;84.42;100997.44;5114216;28;20024;-36
2021/08/05 06:28:54;;;;;;;29.35;26.60;;;;;;;16.58;84.12;101025.69;5113754;28;20102;-36
2021/08/05 06:31:20;;;;;;;;;;;;;;;16.73;83.60;101030.41;5114650;28;20027;-36
2021/08/05 06:33:47;;;;;;;28.20;25.40;;;;;;;16.77;84.08;101033.44;5113966;28;19908;-36
2021/08/05 06:36:13;;;;;;;28.80;26.17;;;;;;;16.81;83.65;101037.28;5114460;28;20024;-36
2021/08/05 06:38:39;;;;;;;31.33;28.20;;;;;;;16.77;83.21;101015.13;5112507;28;20023;-36
2021/08/05 06:41:05;;;;;;;33.05;29.88;;;;;;;16.77;82.67;101022.50;5113830;28;20019;-36
2021/08/05 06:43:30;;;;;;;33.10;30.05;;;;;;;16.80;83.62;101021.97;5113818;28;20022;-36
2021/08/05 06:45:55;;;;;;;;;;;;;;;16.97;83.18;101019.84;5114012;28;20460;-36
2021/08/05 06:48:21;;;;;;;33.57;30.53;;;;;;;16.92;82.69;101025.28;5113820;28;20055;-36
2021/08/05 06:50:46;;;;;;;35.20;31.90;;;;;;;16.99;82.99;101007.56;5114535;28;20577;-36
2021/08/05 06:53:11;;;;;;;;;;;;;;;17.22;82.43;101013.59;5114098;28;20023;-36
2021/08/05 06:55:37;;;;;;;36.30;32.80;;;;;;;17.17;81.43;101011.69;5114213;28;19910;-36
2021/08/05 06:58:03;;;;;;;32.28;29.27;;;;;;;17.24;81.77;100997.78;5113992;28;20269;-36
2021/08/05 07:00:28;;;;;;;36.17;32.80;;;;;;;17.38;81.82;101015.28;5114042;28;20092;-36
2021/08/05 07:02:53;;;;;;;;;;;;;;;17.63;81.37;101019.94;5113780;28;20023;-36
2021/08/05 07:05:19;;;;;;;31.05;27.83;;;;;;;17.79;78.09;101011.75;5114042;28;19926;-36
2021/08/05 07:07:45;;;;;;;;;;;;;;;18.02;80.04;101012.00;5114255;28;20031;-36
2021/08/05 07:10:10;;;;;;;26.50;24.00;;;;;;;18.11;76.93;101014.16;5114389;28;20036;-36
2021/08/05 07:12:35;;;;;;;;;;;;;;;18.30;78.90;101006.16;5113701;28;20015;-36
2021/08/05 07:15:01;;;;;;;27.33;24.65;;;;;;;18.24;76.41;101016.31;5113860;28;19929;-36
2021/08/05 07:17:26;;;;;;;;;;;;;;;18.42;78.23;101010.22;5114156;28;20028;-36
2021/08/05 07:19:52;;;;;;;25.85;23.42;;;;;;;18.35;75.48;101011.63;5113488;28;19907;-36
2021/08/05 07:22:17;;;;;;;;;;;;;;;18.56;77.41;101010.47;5114317;28;20035;-36
2021/08/05 07:24:42;;;;;;;25.23;22.93;;;;;;;18.39;75.22;101004.50;5113542;28;19969;-36
2021/08/05 07:27:08;;;;;;;;;;;;;;;18.59;77.11;100998.94;5114166;28;20348;-34
2021/08/05 07:29:35;;;;;;;28.40;25.67;;;;;;;18.38;75.38;100998.19;5113711;28;19907;-36
2021/08/05 07:32:03;;;;;;;27.67;24.88;;;;;;;18.37;75.02;100995.75;5118275;28;20104;-34
2021/08/05 07:34:29;;;;;;;27.58;24.98;;;;;;;18.34;75.72;101002.59;5117178;28;20025;-35
2021/08/05 07:36:54;;;;;;;;;;;;;;;18.53;76.64;100989.91;5117513;28;20067;-35
2021/08/05 07:39:20;;;;;;;24.58;22.08;;;;;;;18.62;74.08;101000.31;5117578;28;19908;-35
2021/08/05 07:41:45;;;;;;;;;;;;;;;18.80;75.98;100996.16;5117559;27;20020;-35
2021/08/05 07:44:10;;;;;;;22.47;20.27;;;;;;;18.58;74.53;100980.88;5117232;28;20010;-35
2021/08/05 07:46:36;;;;;;;;;;;;;;;18.83;75.93;100987.34;5118227;28;20106;-35
2021/08/05 07:49:02;;;;;;;25.08;21.58;;;;;;;18.66;74.72;100988.50;5117142;28;19908;-35
2021/08/05 07:51:28;;;;;;;26.05;23.63;;;;;;;18.66;75.40;100983.03;5115889;28;20024;-35
2021/08/05 07:53:53;;;;;;;;;;;;;;;18.85;75.68;100990.63;5117497;28;20047;-35
2021/08/05 07:56:21;;;;;;;24.20;21.95;;;;;;;18.68;75.10;100989.06;5117278;28;19908;-35
2021/08/05 07:58:47;;;;;;;25.65;23.02;;;;;;;18.64;75.13;100981.66;5116937;28;20024;-36
2021/08/05 08:01:12;;;;;;;;;;;;;;;18.74;74.95;100982.47;5118197;28;20038;-36
2021/08/05 08:03:37;;;;;;;24.47;22.03;;;;;;;18.58;75.50;100974.56;5116828;27;19938;-35
2021/08/05 08:06:02;;;;;;;;;;;;;;;18.77;75.31;100979.16;5117630;28;20110;-36
2021/08/05 08:08:28;;;;;;;24.30;21.80;;;;;;;18.75;75.13;100977.81;5116772;28;19903;-36
2021/08/05 08:10:53;;;;;;;;;;;;;;;18.90;75.68;100976.91;5117495;28;20335;-34
2021/08/05 08:13:18;;;;;;;25.67;23.17;;;;;;;18.84;76.88;100978.84;5116723;28;19939;-35
2021/08/05 08:15:45;;;;;;;;;;;;;;;19.00;75.34;100968.63;5116933;28;20031;-36
2021/08/05 08:18:10;;;;;;;25.02;22.70;;;;;;;18.85;75.86;100969.53;5116698;28;19914;-36
2021/08/05 08:20:36;;;;;;;;;;;;;;;18.98;75.84;100979.03;5117619;28;20059;-36
2021/08/05 08:23:02;;;;;;;22.60;20.45;;;;;;;18.88;75.40;100968.94;5116891;28;19918;-36
2021/08/05 08:25:27;;;;;;;;;;;;;;;19.08;74.75;100970.75;5117364;28;20028;-36
2021/08/05 08:27:52;;;;;;;24.17;21.83;;;;;;;19.20;74.85;100976.69;5116802;28;19910;-36
2021/08/05 08:30:18;;;;;;;;;;;;;;;19.39;75.23;100965.03;5116799;28;20258;-36
2021/08/05 08:32:44;;;;;;;21.33;19.23;;;;;;;19.42;72.33;100969.94;5116217;28;19903;-36
2021/08/05 08:35:10;;;;;;;21.15;19.17;;;;;;;19.62;73.86;100966.22;5116486;28;20253;-36
2021/08/05 08:37:36;;;;;;;22.90;20.55;;;;;;;19.52;72.61;100934.19;5116327;28;20027;-36
2021/08/05 08:40:02;;;;;;;;;;;;;;;19.90;73.80;100956.34;5116712;28;20585;-36
2021/08/05 08:42:27;;;;;;;20.15;18.15;;;;;;;19.87;70.61;100967.94;5116312;28;19910;-35
2021/08/05 08:44:53;;;;;;;20.70;18.63;;;;;;;19.96;70.61;100939.56;5116424;28;20016;-35
2021/08/05 08:47:20;;;;;;;;;;;;;;;20.27;71.38;100959.22;5115272;28;20047;-35
2021/08/05 08:49:49;;;;;;;20.67;18.58;;;;;;;20.03;70.95;100966.66;5116122;28;19911;-36
2021/08/05 08:52:15;;;;;;;21.67;19.67;;;;;;;20.10;69.81;100961.63;5115958;28;20019;-35
2021/08/05 08:54:45;;;;;;;21.45;19.35;;;;;;;20.18;69.65;100944.50;5115570;28;20026;-35
2021/08/05 08:57:16;;;;;;;20.30;18.42;;;;;;;20.31;68.50;100957.53;5115695;28;20023;-35
2021/08/05 08:59:42;;;;;;;19.45;17.63;;;;;;;20.40;67.82;100957.72;5116291;28;20329;-35
2021/08/05 09:02:07;;;;;;;;;;;;;;;20.64;67.42;100949.44;5116423;28;20100;-36
2021/08/05 09:04:34;;;;;;;18.25;16.48;;;;;;;20.75;66.59;100950.94;5115632;28;20426;-36
2021/08/05 09:07:00;;;;;;;18.92;17.02;;;;;;;20.60;65.16;100947.59;5116436;28;20123;-36
2021/08/05 09:09:25;;;;;;;;;;;;;;;20.88;63.98;100948.56;5116340;28;20103;-36
2021/08/05 09:11:50;;;;;;;16.23;14.63;;;;;;;20.74;61.67;100946.56;5116349;28;19915;-36
2021/08/05 09:14:34;;;;;;;;;;;;;;;20.83;62.55;100941.19;5116163;28;20027;-36
2021/08/05 09:17:15;;;;;;;12.30;11.05;;;;;;;20.98;64.39;100929.16;5115689;28;20347;-36
2021/08/05 09:19:41;;;;;;;11.88;10.75;;;;;;;21.05;60.36;100924.13;5115541;28;20027;-36
2021/08/05 09:22:06;;;;;;;;;;;;;;;21.23;63.08;100928.78;5115469;28;20363;-36
2021/08/05 09:24:31;;;;;;;10.15;8.98;;;;;;;21.13;59.78;100923.44;5116106;28;19907;-36
2021/08/05 09:26:59;;;;;;;12.45;11.32;;;;;;;20.99;59.59;100930.81;5115596;27;20341;-36
2021/08/05 09:29:25;;;;;;;13.70;12.35;;;;;;;20.90;60.69;100930.66;5114881;28;20027;-36
2021/08/05 09:31:50;;;;;;;;;;;;;;;21.14;61.14;100927.00;5115573;28;20032;-36
2021/08/05 09:34:20;;;;;;;15.13;13.63;;;;;;;21.05;61.17;100929.63;5115117;28;20347;-36
2021/08/05 09:36:48;;;;;;;15.40;13.98;;;;;;;20.93;60.50;100919.06;5114671;28;20034;-36
2021/08/05 09:39:15;;;;;;;15.10;13.75;;;;;;;21.06;62.41;100912.00;5114722;28;20019;-35
2021/08/05 09:42:00;;;;;;;13.95;12.65;;;;;;;21.44;63.51;100914.69;5115509;28;20024;-35
2021/08/05 09:44:43;;;;;;;15.98;12.63;;;;;;;21.65;61.57;100904.13;5114913;28;20027;-36
2021/08/05 09:47:15;;;;;;;13.90;12.43;;;;;;;21.91;61.06;100907.19;5115059;27;20027;-36
2021/08/05 09:49:46;;;;;;;14.30;12.93;;;;;;;21.97;62.28;100908.75;5114849;28;20019;-36
2021/08/05 09:52:16;;;;;;;13.60;12.18;;;;;;;22.05;61.80;100911.59;5114160;28;20020;-35
2021/08/05 09:54:51;;;;;;;13.13;11.75;;;;;;;22.04;59.91;100898.13;5114717;28;20396;-35
2021/08/05 09:57:28;;;;;;;12.45;11.18;;;;;;;22.40;61.19;100902.91;5114728;28;20448;-35
2021/08/05 10:00:07;;;;;;;12.45;11.18;;;;;;;22.60;57.60;100899.72;5114817;28;20059;-35
2021/08/05 10:02:53;;;;;;;11.93;10.73;;;;;;;22.79;55.40;100900.38;5114320;28;20011;-35
2021/08/05 10:05:24;;;;;;;10.20;9.30;;;;;;;22.85;56.02;100896.38;5114418;28;20060;-35
2021/08/05 10:07:51;;;;;;;12.32;9.63;;;;;;;23.01;54.58;100898.78;5114502;28;20019;-35
2021/08/05 10:10:19;;;;;;;9.75;8.75;;;;;;;23.07;53.84;100894.75;5113887;28;20483;-35
2021/08/05 10:12:52;;;;;;;13.25;10.60;;;;;;;22.82;52.07;100902.50;5114219;28;20503;-35
2021/08/05 10:15:19;;;;;;;13.55;12.23;;;;;;;22.54;52.49;100895.44;5114459;28;20016;-35
2021/08/05 10:17:45;;;;;;;14.15;9.07;;;;;;;22.87;53.48;100876.75;5114112;28;20016;-35
2021/08/05 10:20:12;;;;;;;10.32;9.23;;;;;;;23.23;53.18;100896.03;5113879;28;20366;-36
2021/08/05 10:22:39;;;;;;;14.45;13.13;;;;;;;22.94;52.06;100873.59;5114482;28;20127;-35
2021/08/05 10:25:07;;;;;;;12.80;11.50;;;;;;;22.81;55.17;100889.84;5114203;28;20321;-36
2021/08/05 10:27:34;;;;;;;13.10;10.18;;;;;;;22.81;52.92;100886.28;5114037;28;20031;-35
2021/08/05 10:30:00;;;;;;;12.52;11.25;;;;;;;22.91;56.36;100879.75;5113935;28;20348;-35
2021/08/05 10:32:25;;;;;;;11.30;9.60;;;;;;;22.63;51.67;100866.00;5114157;28;20160;-35
2021/08/05 10:34:52;;;;;;;10.00;9.00;;;;;;;22.49;54.23;100866.06;5113506;28;20480;-35
2021/08/05 10:37:18;;;;;;;12.07;10.88;;;;;;;22.73;54.78;100865.78;5113950;28;20031;-36
2021/08/05 10:39:45;;;;;;;17.00;15.30;;;;;;;22.99;56.57;100876.25;5113805;28;20149;-36
2021/08/05 10:42:17;;;;;;;18.95;17.08;;;;;;;22.81;57.07;100867.78;5114337;28;20406;-35
2021/08/05 10:44:45;;;;;;;20.40;18.42;;;;;;;22.63;58.06;100868.78;5113678;28;20363;-35
2021/08/05 10:47:14;;;;;;;19.05;17.15;;;;;;;22.48;57.75;100869.94;5113893;28;20352;-35
2021/08/05 10:49:40;;;;;;;17.15;15.55;;;;;;;22.38;57.03;100869.34;5113873;28;20049;-35
2021/08/05 10:52:06;;;;;;;15.23;13.73;;;;;;;22.27;56.69;100861.31;5114174;28;20028;-35
2021/08/05 10:54:52;;;;;;;11.98;10.77;;;;;;;22.25;56.75;100866.34;5113305;28;20022;-35
2021/08/05 10:57:22;;;;;;;17.47;10.83;;;;;;;22.12;56.16;100860.84;5113258;28;20022;-35
2021/08/05 11:00:04;;;;;;;11.80;10.32;;;;;;;22.03;57.60;100866.22;5113432;28;20039;-35
2021/08/05 11:02:50;;;;;;;11.80;10.70;;;;;;;22.02;57.18;100867.34;5113468;28;20012;-35
2021/08/05 11:05:40;;;;;;;12.40;10.75;;;;;;;22.03;57.66;100863.47;5113128;28;20015;-35
2021/08/05 11:08:08;;;;;;;12.02;10.80;;;;;;;21.90;56.76;100867.84;5113755;28;20030;-35
2021/08/05 11:10:37;;;;;;;11.70;10.52;;;;;;;21.81;57.03;100856.75;5113822;28;20019;-35
2021/08/05 11:13:09;;;;;;;12.68;10.20;;;;;;;21.85;58.71;100854.19;5113619;28;20020;-36
2021/08/05 11:15:34;;;;;;;10.85;9.85;;;;;;;21.87;56.20;100851.97;5113424;28;20110;-36
2021/08/05 11:18:18;;;;;;;10.43;8.95;;;;;;;21.83;55.76;100853.69;5113162;28;20106;-35
2021/08/05 11:20:52;;;;;;;9.40;8.07;;;;;;;21.94;57.75;100846.03;5113312;28;20019;-35
2021/08/05 11:23:31;;;;;;;8.85;7.95;;;;;;;21.98;56.37;100850.63;5112988;28;20057;-35